createdAt,value
2018-04-30T00:00:55.215Z,46.30
2018-04-30T00:02:05.472Z,46.40
2018-04-30T00:03:13.994Z,46.40
2018-04-30T00:04:22.572Z,46.40
2018-04-30T00:05:31.298Z,46.40
2018-04-30T00:06:39.865Z,46.40
2018-04-30T00:07:48.588Z,46.40
2018-04-30T00:08:57.319Z,46.20
2018-04-30T00:10:06.742Z,46.40
2018-04-30T00:11:15.435Z,46.40
2018-04-30T00:12:24.070Z,46.50
2018-04-30T00:13:32.675Z,46.40
2018-04-30T00:14:42.219Z,46.20
2018-04-30T00:15:52.445Z,46.20
2018-04-30T00:17:01.784Z,46.30
2018-04-30T00:18:10.367Z,46.20
2018-04-30T00:19:19.015Z,46.20
2018-04-30T00:20:27.854Z,46.20
2018-04-30T00:21:37.199Z,46.90
2018-04-30T00:22:46.130Z,46.40
2018-04-30T00:23:54.784Z,46.50
2018-04-30T00:25:03.698Z,46.50
2018-04-30T00:26:12.462Z,47.00
2018-04-30T00:27:22.053Z,46.30
2018-04-30T00:28:30.623Z,46.30
2018-04-30T00:29:39.224Z,46.40
2018-04-30T00:30:47.883Z,46.50
2018-04-30T00:31:57.358Z,46.70
2018-04-30T00:33:06.728Z,46.80
2018-04-30T00:34:15.449Z,46.80
2018-04-30T00:35:25.054Z,47.20
2018-04-30T00:36:33.689Z,47.10
2018-04-30T00:37:42.256Z,47.20
2018-04-30T00:38:50.887Z,47.20
2018-04-30T00:39:59.583Z,47.30
2018-04-30T00:41:08.272Z,47.40
2018-04-30T00:42:17.627Z,47.60
2018-04-30T00:43:26.314Z,47.60
2018-04-30T00:44:35.083Z,47.50
2018-04-30T00:45:43.759Z,47.50
2018-04-30T00:46:52.443Z,47.50
2018-04-30T00:48:01.068Z,47.70
2018-04-30T00:49:09.815Z,47.80
2018-04-30T00:50:18.562Z,48.00
2018-04-30T00:51:27.272Z,48.20
2018-04-30T00:52:35.888Z,48.40
2018-04-30T00:53:44.643Z,48.50
2018-04-30T00:55:00.156Z,48.80
2018-04-30T00:56:09.640Z,49.10
2018-04-30T00:57:18.336Z,49.10
2018-04-30T00:58:28.611Z,49.20
2018-04-30T00:59:37.286Z,49.20
2018-04-30T01:00:45.908Z,49.10
2018-04-30T01:01:54.512Z,49.00
2018-04-30T01:03:03.150Z,49.00
2018-04-30T01:04:11.860Z,48.90
2018-04-30T01:05:20.436Z,49.00
2018-04-30T01:06:29.269Z,49.00
2018-04-30T01:07:38.062Z,49.10
2018-04-30T01:08:46.576Z,49.10
2018-04-30T01:09:55.328Z,49.10
2018-04-30T01:11:04.427Z,49.20
2018-04-30T01:12:21.386Z,49.20
2018-04-30T01:13:29.953Z,49.40
2018-04-30T01:14:38.550Z,49.50
2018-04-30T01:15:47.944Z,49.40
2018-04-30T01:16:56.785Z,49.30
2018-04-30T01:18:06.190Z,49.40
2018-04-30T01:19:14.981Z,49.40
2018-04-30T01:20:23.712Z,49.50
2018-04-30T01:21:32.486Z,49.60
2018-04-30T01:22:41.405Z,49.50
2018-04-30T01:23:50.928Z,49.30
2018-04-30T01:24:59.732Z,49.20
2018-04-30T01:26:08.523Z,49.30
2018-04-30T01:27:17.211Z,49.50
2018-04-30T01:28:26.046Z,49.50
2018-04-30T01:29:34.877Z,49.40
2018-04-30T01:30:44.339Z,49.30
2018-04-30T01:31:52.991Z,49.30
2018-04-30T01:33:01.755Z,49.30
2018-04-30T01:34:10.592Z,49.20
2018-04-30T01:35:19.326Z,49.00
2018-04-30T01:36:28.060Z,48.90
2018-04-30T01:37:36.846Z,49.00
2018-04-30T01:38:45.534Z,49.00
2018-04-30T01:39:54.215Z,49.00
2018-04-30T01:41:03.008Z,49.10
2018-04-30T01:42:11.732Z,49.20
2018-04-30T01:43:20.312Z,49.40
2018-04-30T01:44:29.076Z,49.50
2018-04-30T01:45:38.383Z,49.70
2018-04-30T01:46:46.995Z,49.70
2018-04-30T01:47:55.600Z,49.80
2018-04-30T01:49:04.297Z,49.80
2018-04-30T01:50:13.052Z,49.80
2018-04-30T01:51:21.682Z,49.70
2018-04-30T01:52:30.391Z,49.80
2018-04-30T01:53:39.766Z,49.70
2018-04-30T01:54:49.187Z,49.70
2018-04-30T01:55:57.889Z,49.70
2018-04-30T01:57:06.485Z,49.70
2018-04-30T01:58:15.068Z,49.60
2018-04-30T01:59:24.462Z,49.50
2018-04-30T02:00:33.110Z,49.50
2018-04-30T02:01:41.964Z,49.50
2018-04-30T02:02:50.693Z,49.50
2018-04-30T02:04:00.232Z,49.70
2018-04-30T02:05:08.916Z,49.70
2018-04-30T02:06:18.291Z,49.60
2018-04-30T02:07:27.723Z,49.40
2018-04-30T02:08:36.369Z,49.40
2018-04-30T02:09:45.198Z,49.60
2018-04-30T02:10:53.830Z,49.60
2018-04-30T02:12:03.391Z,49.70
2018-04-30T02:13:12.234Z,49.60
2018-04-30T02:14:21.018Z,49.60
2018-04-30T02:15:29.948Z,49.50
2018-04-30T02:16:39.460Z,49.40
2018-04-30T02:17:48.087Z,49.40
2018-04-30T02:18:56.654Z,49.60
2018-04-30T02:20:05.269Z,49.70
2018-04-30T02:21:13.945Z,49.70
2018-04-30T02:22:22.557Z,49.50
2018-04-30T02:23:31.249Z,49.40
2018-04-30T02:24:40.048Z,49.20
2018-04-30T02:25:48.875Z,49.20
2018-04-30T02:26:57.525Z,49.10
2018-04-30T02:28:06.170Z,49.00
2018-04-30T02:29:14.843Z,48.90
2018-04-30T02:30:23.415Z,48.90
2018-04-30T02:31:32.052Z,49.00
2018-04-30T02:32:40.770Z,48.90
2018-04-30T02:33:49.468Z,48.80
2018-04-30T02:34:58.253Z,48.90
2018-04-30T02:36:07.027Z,48.90
2018-04-30T02:37:15.699Z,48.80
2018-04-30T02:38:24.394Z,48.80
2018-04-30T02:39:33.016Z,48.70
2018-04-30T02:40:41.550Z,48.70
2018-04-30T02:41:50.215Z,48.50
2018-04-30T02:42:58.970Z,48.40
2018-04-30T02:44:09.113Z,48.10
2018-04-30T02:45:17.803Z,48.10
2018-04-30T02:46:26.487Z,48.40
2018-04-30T02:47:35.123Z,48.30
2018-04-30T02:48:43.820Z,48.30
2018-04-30T02:49:53.282Z,48.40
2018-04-30T02:51:02.627Z,48.40
2018-04-30T02:52:11.229Z,48.40
2018-04-30T02:53:19.721Z,48.50
2018-04-30T02:54:28.428Z,48.60
2018-04-30T02:55:37.032Z,48.60
2018-04-30T02:56:45.734Z,48.60
2018-04-30T02:57:54.404Z,48.60
2018-04-30T02:59:03.215Z,48.40
2018-04-30T03:00:11.882Z,48.40
2018-04-30T03:01:20.662Z,48.50
2018-04-30T03:02:30.183Z,49.00
2018-04-30T03:03:38.943Z,48.60
2018-04-30T03:04:47.684Z,48.60
2018-04-30T03:05:56.304Z,48.60
2018-04-30T03:07:04.968Z,48.70
2018-04-30T03:08:13.743Z,48.70
2018-04-30T03:09:22.327Z,48.60
2018-04-30T03:10:30.953Z,48.50
2018-04-30T03:11:40.277Z,48.50
2018-04-30T03:12:48.873Z,48.50
2018-04-30T03:13:57.668Z,48.30
2018-04-30T03:15:06.278Z,48.10
2018-04-30T03:16:14.884Z,48.00
2018-04-30T03:17:23.638Z,48.10
2018-04-30T03:18:32.337Z,48.30
2018-04-30T03:19:41.854Z,48.80
2018-04-30T03:20:50.593Z,48.20
2018-04-30T03:21:59.280Z,48.20
2018-04-30T03:23:07.941Z,48.30
2018-04-30T03:24:16.753Z,48.40
2018-04-30T03:25:25.526Z,48.50
2018-04-30T03:26:34.205Z,48.60
2018-04-30T03:27:43.004Z,48.60
2018-04-30T03:28:51.763Z,48.70
2018-04-30T03:30:00.519Z,48.80
2018-04-30T03:31:09.302Z,48.90
2018-04-30T03:32:17.975Z,49.00
2018-04-30T03:33:26.810Z,49.20
2018-04-30T03:34:35.380Z,49.40
2018-04-30T03:35:44.171Z,49.70
2018-04-30T03:36:52.821Z,49.60
2018-04-30T03:38:01.418Z,50.10
2018-04-30T03:39:10.160Z,50.30
2018-04-30T03:40:18.814Z,50.80
2018-04-30T03:41:28.308Z,51.60
2018-04-30T03:42:36.820Z,51.40
2018-04-30T03:43:45.500Z,51.90
2018-04-30T03:44:54.078Z,52.10
2018-04-30T03:46:02.775Z,52.60
2018-04-30T03:47:11.441Z,53.80
2018-04-30T03:48:20.894Z,55.40
2018-04-30T03:49:29.564Z,55.40
2018-04-30T03:50:38.332Z,57.30
2018-04-30T03:51:46.927Z,59.00
2018-04-30T03:52:55.565Z,61.70
2018-04-30T03:54:05.021Z,67.70
2018-04-30T03:55:13.825Z,67.70
2018-04-30T03:56:22.534Z,71.40
2018-04-30T03:57:31.138Z,74.80
2018-04-30T03:58:39.744Z,78.20
2018-04-30T03:59:48.363Z,80.90
2018-04-30T04:01:09.021Z,83.40
2018-04-30T04:02:30.451Z,87.70
2018-04-30T04:03:51.116Z,87.70
2018-04-30T04:05:11.837Z,90.10
2018-04-30T04:06:42.194Z,90.70
2018-04-30T04:07:50.859Z,91.40
2018-04-30T04:08:59.537Z,91.60
2018-04-30T04:10:08.297Z,91.80
2018-04-30T04:11:17.856Z,92.20
2018-04-30T04:12:26.508Z,92.20
2018-04-30T04:13:35.225Z,92.40
2018-04-30T04:14:43.812Z,92.50
2018-04-30T04:15:52.560Z,92.70
2018-04-30T04:17:01.253Z,92.90
2018-04-30T04:18:09.977Z,93.10
2018-04-30T04:19:19.353Z,93.40
2018-04-30T04:20:28.101Z,93.40
2018-04-30T04:21:36.774Z,93.70
2018-04-30T04:22:45.382Z,93.90
2018-04-30T04:23:54.083Z,93.80
2018-04-30T04:25:02.739Z,92.60
2018-04-30T04:26:12.177Z,90.80
2018-04-30T04:27:20.691Z,90.80
2018-04-30T04:28:29.248Z,90.60
2018-04-30T04:29:37.904Z,90.50
2018-04-30T04:30:46.614Z,90.40
2018-04-30T04:31:55.240Z,90.00
2018-04-30T04:33:03.996Z,89.40
2018-04-30T04:34:12.737Z,89.30
2018-04-30T04:35:21.439Z,88.30
2018-04-30T04:36:30.868Z,87.40
2018-04-30T04:37:39.470Z,87.20
2018-04-30T04:38:48.131Z,86.80
2018-04-30T04:39:56.810Z,85.80
2018-04-30T04:41:06.313Z,83.90
2018-04-30T04:42:14.879Z,83.80
2018-04-30T04:43:23.471Z,83.70
2018-04-30T04:44:32.023Z,83.50
2018-04-30T04:45:40.640Z,83.40
2018-04-30T04:46:50.130Z,83.70
2018-04-30T04:47:58.914Z,82.80
2018-04-30T04:49:08.463Z,81.90
2018-04-30T04:50:17.977Z,80.80
2018-04-30T04:51:26.795Z,80.80
2018-04-30T04:52:35.404Z,80.50
2018-04-30T04:53:44.110Z,79.90
2018-04-30T04:54:52.714Z,79.70
2018-04-30T04:56:01.436Z,79.40
2018-04-30T04:57:10.067Z,79.30
2018-04-30T04:58:18.901Z,79.30
2018-04-30T04:59:27.713Z,79.50
2018-04-30T05:00:36.502Z,79.40
2018-04-30T05:01:45.156Z,79.30
2018-04-30T05:02:53.882Z,79.40
2018-04-30T05:04:02.542Z,79.30
2018-04-30T05:05:11.252Z,79.90
2018-04-30T05:06:19.808Z,79.30
2018-04-30T05:07:29.281Z,79.70
2018-04-30T05:08:37.981Z,79.60
2018-04-30T05:09:47.404Z,80.00
2018-04-30T05:10:56.180Z,80.00
2018-04-30T05:12:05.857Z,80.30
2018-04-30T05:13:14.487Z,80.30
2018-04-30T05:14:23.192Z,80.60
2018-04-30T05:15:31.836Z,80.90
2018-04-30T05:16:40.465Z,81.00
2018-04-30T05:17:49.085Z,81.20
2018-04-30T05:18:57.693Z,81.10
2018-04-30T05:20:06.403Z,81.40
2018-04-30T05:21:15.012Z,81.50
2018-04-30T05:22:23.719Z,81.50
2018-04-30T05:23:32.323Z,81.00
2018-04-30T05:24:41.186Z,80.90
2018-04-30T05:25:50.058Z,81.50
2018-04-30T05:26:59.045Z,81.70
2018-04-30T05:28:08.197Z,81.80
2018-04-30T05:29:17.547Z,82.00
2018-04-30T05:30:26.935Z,82.40
2018-04-30T05:31:35.611Z,82.30
2018-04-30T05:32:44.428Z,82.40
2018-04-30T05:33:53.036Z,82.60
2018-04-30T05:35:01.679Z,83.20
2018-04-30T05:36:11.122Z,83.60
2018-04-30T05:37:19.835Z,83.50
2018-04-30T05:38:28.555Z,83.60
2018-04-30T05:39:37.307Z,84.20
2018-04-30T05:40:46.120Z,84.30
2018-04-30T05:41:54.777Z,84.50
2018-04-30T05:43:03.541Z,84.30
2018-04-30T05:44:12.191Z,84.00
2018-04-30T05:45:20.945Z,84.00
2018-04-30T05:46:29.537Z,85.10
2018-04-30T05:47:38.893Z,85.00
2018-04-30T05:48:47.553Z,84.80
2018-04-30T05:49:56.290Z,85.30
2018-04-30T05:51:05.459Z,85.70
2018-04-30T05:52:14.207Z,85.90
2018-04-30T05:53:22.804Z,86.30
2018-04-30T05:54:31.560Z,86.90
2018-04-30T05:55:40.245Z,87.30
2018-04-30T05:56:49.752Z,87.70
2018-04-30T05:57:58.444Z,87.70
2018-04-30T05:59:07.115Z,88.10
2018-04-30T06:00:15.847Z,88.30
2018-04-30T06:01:24.495Z,88.20
2018-04-30T06:02:33.217Z,88.10
2018-04-30T06:03:41.827Z,88.60
2018-04-30T06:04:50.410Z,88.50
2018-04-30T06:06:00.176Z,88.90
2018-04-30T06:07:09.179Z,89.30
2018-04-30T06:08:17.799Z,89.60
2018-04-30T06:09:27.244Z,89.90
2018-04-30T06:10:35.939Z,89.90
2018-04-30T06:11:44.691Z,90.00
2018-04-30T06:12:53.326Z,90.00
2018-04-30T06:14:02.007Z,90.10
2018-04-30T06:15:10.734Z,90.10
2018-04-30T06:16:20.079Z,90.20
2018-04-30T06:17:28.718Z,90.20
2018-04-30T06:18:37.509Z,90.50
2018-04-30T06:19:46.251Z,90.50
2018-04-30T06:20:54.986Z,90.70
2018-04-30T06:22:03.730Z,91.20
2018-04-30T06:23:12.469Z,91.40
2018-04-30T06:24:21.126Z,91.60
2018-04-30T06:25:29.797Z,92.00
2018-04-30T06:26:39.480Z,92.20
2018-04-30T06:27:48.913Z,92.20
2018-04-30T06:28:57.712Z,92.20
2018-04-30T06:30:06.426Z,92.70
2018-04-30T06:31:16.072Z,93.00
2018-04-30T06:32:24.879Z,93.00
2018-04-30T06:33:34.243Z,93.10
2018-04-30T06:34:42.972Z,93.10
2018-04-30T06:35:52.540Z,93.00
2018-04-30T06:37:01.250Z,93.00
2018-04-30T06:38:09.811Z,92.90
2018-04-30T06:39:18.580Z,93.00
2018-04-30T06:40:27.239Z,93.20
2018-04-30T06:41:35.993Z,93.20
2018-04-30T06:42:44.714Z,93.20
2018-04-30T06:43:54.224Z,93.70
2018-04-30T06:45:02.885Z,93.60
2018-04-30T06:46:11.556Z,93.80
2018-04-30T06:47:20.147Z,93.70
2018-04-30T06:48:28.726Z,94.10
2018-04-30T06:49:37.355Z,94.60
2018-04-30T06:50:46.873Z,94.70
2018-04-30T06:51:56.453Z,95.20
2018-04-30T06:53:05.254Z,94.90
2018-04-30T06:54:13.838Z,95.10
2018-04-30T06:55:22.456Z,95.30
2018-04-30T06:56:31.124Z,95.60
2018-04-30T06:57:40.700Z,95.20
2018-04-30T06:58:49.387Z,95.20
2018-04-30T06:59:58.950Z,95.20
2018-04-30T07:01:07.665Z,95.20
2018-04-30T07:02:16.355Z,95.60
2018-04-30T07:03:25.099Z,95.80
2018-04-30T07:04:34.610Z,96.20
2018-04-30T07:05:43.233Z,95.90
2018-04-30T07:06:52.237Z,95.70
2018-04-30T07:08:00.915Z,95.10
2018-04-30T07:09:09.648Z,95.30
2018-04-30T07:10:19.101Z,95.70
2018-04-30T07:11:27.663Z,95.60
2018-04-30T07:12:37.109Z,95.70
2018-04-30T07:13:45.700Z,95.70
2018-04-30T07:14:54.414Z,95.80
2018-04-30T07:16:03.122Z,95.70
2018-04-30T07:17:12.475Z,95.60
2018-04-30T07:18:21.079Z,95.60
2018-04-30T07:19:29.763Z,95.70
2018-04-30T07:20:38.411Z,95.70
2018-04-30T07:21:47.063Z,95.50
2018-04-30T07:22:56.550Z,95.40
2018-04-30T07:24:05.240Z,95.30
2018-04-30T07:25:13.986Z,95.50
2018-04-30T07:26:22.571Z,94.90
2018-04-30T07:27:31.144Z,95.10
2018-04-30T07:28:40.679Z,95.40
2018-04-30T07:29:49.424Z,95.20
2018-04-30T07:30:58.116Z,95.20
2018-04-30T07:32:06.711Z,95.20
2018-04-30T07:33:15.588Z,94.90
2018-04-30T07:34:24.190Z,95.00
2018-04-30T07:35:33.711Z,94.50
2018-04-30T07:36:42.482Z,94.50
2018-04-30T07:37:51.185Z,94.60
2018-04-30T07:38:59.756Z,94.70
2018-04-30T07:40:08.437Z,94.20
2018-04-30T07:41:17.159Z,94.10
2018-04-30T07:42:25.882Z,94.60
2018-04-30T07:43:34.547Z,94.60
2018-04-30T07:44:43.155Z,94.40
2018-04-30T07:45:52.586Z,94.40
2018-04-30T07:47:01.329Z,94.40
2018-04-30T07:48:10.926Z,94.00
2018-04-30T07:49:19.850Z,93.90
2018-04-30T07:50:28.355Z,93.80
2018-04-30T07:51:38.549Z,94.00
2018-04-30T07:52:47.220Z,94.00
2018-04-30T07:53:55.925Z,93.80
2018-04-30T07:55:04.569Z,93.50
2018-04-30T07:56:13.370Z,93.20
2018-04-30T07:57:22.009Z,93.30
2018-04-30T07:58:30.569Z,93.40
2018-04-30T07:59:39.157Z,93.40
2018-04-30T08:00:47.819Z,93.00
2018-04-30T08:01:56.404Z,93.10
2018-04-30T08:03:05.136Z,92.90
2018-04-30T08:04:15.171Z,92.90
2018-04-30T08:05:24.049Z,92.90
2018-04-30T08:06:32.889Z,93.10
2018-04-30T08:07:41.535Z,93.10
2018-04-30T08:08:51.018Z,92.40
2018-04-30T08:09:59.632Z,92.40
2018-04-30T08:11:08.252Z,92.50
2018-04-30T08:12:16.855Z,92.60
2018-04-30T08:13:25.572Z,92.40
2018-04-30T08:14:34.137Z,91.90
2018-04-30T08:15:42.825Z,91.70
2018-04-30T08:16:52.292Z,92.00
2018-04-30T08:18:01.010Z,92.20
2018-04-30T08:19:09.741Z,92.50
2018-04-30T08:20:18.320Z,92.40
2018-04-30T08:21:27.074Z,92.00
2018-04-30T08:22:36.491Z,91.80
2018-04-30T08:23:45.135Z,91.80
2018-04-30T08:24:53.955Z,91.80
2018-04-30T08:26:02.730Z,91.90
2018-04-30T08:27:11.404Z,91.90
2018-04-30T08:28:20.044Z,91.90
2018-04-30T08:29:29.448Z,91.80
2018-04-30T08:30:38.154Z,91.80
2018-04-30T08:31:46.903Z,91.80
2018-04-30T08:32:55.632Z,91.70
2018-04-30T08:34:04.367Z,91.70
2018-04-30T08:35:13.047Z,91.30
2018-04-30T08:36:21.859Z,91.60
2018-04-30T08:37:30.726Z,91.30
2018-04-30T08:38:39.505Z,91.40
2018-04-30T08:39:48.098Z,91.40
2018-04-30T08:40:56.821Z,91.50
2018-04-30T08:42:05.580Z,91.70
2018-04-30T08:43:14.960Z,91.90
2018-04-30T08:44:24.371Z,91.80
2018-04-30T08:45:33.137Z,91.80
2018-04-30T08:46:42.574Z,91.50
2018-04-30T08:47:51.177Z,91.50
2018-04-30T08:48:59.787Z,91.50
2018-04-30T08:50:08.343Z,91.40
2018-04-30T08:51:16.970Z,91.30
2018-04-30T08:52:25.783Z,91.20
2018-04-30T08:53:35.177Z,91.60
2018-04-30T08:54:43.993Z,91.60
2018-04-30T08:55:52.727Z,91.40
2018-04-30T08:57:01.542Z,91.10
2018-04-30T08:58:10.194Z,91.10
2018-04-30T08:59:19.774Z,91.30
2018-04-30T09:00:28.782Z,91.30
2018-04-30T09:01:38.132Z,91.30
2018-04-30T09:02:46.841Z,91.20
2018-04-30T09:03:55.685Z,91.00
2018-04-30T09:05:04.438Z,91.10
2018-04-30T09:06:13.094Z,91.10
2018-04-30T09:07:21.667Z,90.90
2018-04-30T09:08:30.227Z,90.90
2018-04-30T09:09:39.777Z,90.60
2018-04-30T09:10:48.526Z,90.60
2018-04-30T09:11:57.187Z,90.50
2018-04-30T09:13:05.785Z,90.70
2018-04-30T09:14:14.502Z,90.40
2018-04-30T09:15:23.010Z,90.00
2018-04-30T09:16:31.670Z,89.30
2018-04-30T09:17:40.378Z,89.30
2018-04-30T09:18:50.005Z,89.20
2018-04-30T09:19:58.592Z,89.10
2018-04-30T09:21:07.193Z,89.50
2018-04-30T09:22:15.759Z,89.30
2018-04-30T09:23:24.396Z,89.40
2018-04-30T09:24:33.012Z,89.30
2018-04-30T09:25:41.602Z,88.80
2018-04-30T09:26:51.178Z,89.20
2018-04-30T09:27:59.906Z,89.10
2018-04-30T09:29:08.517Z,89.10
2018-04-30T09:30:17.916Z,88.20
2018-04-30T09:31:26.618Z,88.20
2018-04-30T09:32:35.408Z,88.60
2018-04-30T09:33:44.127Z,88.50
2018-04-30T09:34:52.850Z,88.80
2018-04-30T09:36:01.511Z,89.50
2018-04-30T09:37:11.137Z,88.70
2018-04-30T09:38:19.835Z,88.70
2018-04-30T09:39:28.628Z,88.70
2018-04-30T09:40:37.326Z,88.40
2018-04-30T09:41:45.936Z,87.50
2018-04-30T09:42:54.552Z,87.90
2018-04-30T09:44:03.251Z,88.20
2018-04-30T09:45:12.691Z,88.30
2018-04-30T09:46:22.216Z,87.60
2018-04-30T09:47:30.954Z,87.60
2018-04-30T09:48:39.565Z,87.80
2018-04-30T09:49:48.293Z,87.50
2018-04-30T09:50:57.187Z,87.40
2018-04-30T09:52:05.779Z,87.20
2018-04-30T09:53:14.360Z,85.70
2018-04-30T09:54:23.023Z,85.90
2018-04-30T09:55:31.580Z,86.10
2018-04-30T09:56:40.467Z,85.80
2018-04-30T09:57:49.924Z,85.90
2018-04-30T09:58:58.539Z,85.50
2018-04-30T10:00:07.125Z,85.10
2018-04-30T10:01:15.805Z,84.90
2018-04-30T10:02:24.366Z,84.50
2018-04-30T10:03:33.165Z,84.10
2018-04-30T10:04:41.999Z,85.00
2018-04-30T10:05:50.807Z,85.50
2018-04-30T10:07:00.261Z,84.40
2018-04-30T10:08:09.063Z,84.30
2018-04-30T10:09:17.652Z,84.00
2018-04-30T10:10:26.271Z,84.40
2018-04-30T10:11:34.996Z,84.80
2018-04-30T10:12:44.435Z,84.00
2018-04-30T10:13:53.255Z,84.00
2018-04-30T10:15:01.986Z,84.00
2018-04-30T10:16:11.382Z,83.40
2018-04-30T10:17:19.906Z,83.40
2018-04-30T10:18:29.312Z,83.40
2018-04-30T10:19:37.995Z,83.10
2018-04-30T10:20:46.627Z,83.20
2018-04-30T10:21:55.243Z,83.00
2018-04-30T10:23:03.845Z,82.40
2018-04-30T10:24:12.552Z,82.10
2018-04-30T10:25:21.153Z,82.10
2018-04-30T10:26:29.827Z,82.00
2018-04-30T10:27:39.288Z,82.90
2018-04-30T10:28:48.082Z,82.60
2018-04-30T10:29:56.851Z,82.90
2018-04-30T10:31:06.263Z,82.80
2018-04-30T10:32:15.634Z,82.80
2018-04-30T10:33:24.320Z,82.80
2018-04-30T10:34:33.716Z,83.70
2018-04-30T10:35:42.461Z,83.60
2018-04-30T10:36:51.063Z,83.70
2018-04-30T10:37:59.763Z,83.40
2018-04-30T10:39:09.128Z,83.20
2018-04-30T10:40:17.871Z,83.10
2018-04-30T10:41:26.473Z,82.80
2018-04-30T10:42:35.186Z,82.40
2018-04-30T10:43:43.811Z,82.00
2018-04-30T10:44:53.260Z,82.20
2018-04-30T10:46:01.911Z,82.20
2018-04-30T10:47:10.696Z,82.40
2018-04-30T10:48:19.275Z,82.40
2018-04-30T10:49:28.607Z,82.10
2018-04-30T10:50:37.214Z,82.10
2018-04-30T10:51:46.891Z,82.60
2018-04-30T10:52:55.615Z,82.40
2018-04-30T10:54:04.213Z,82.50
2018-04-30T10:55:13.019Z,82.00
2018-04-30T10:56:21.671Z,82.00
2018-04-30T10:57:30.422Z,82.40
2018-04-30T10:58:39.009Z,82.50
2018-04-30T10:59:47.718Z,82.00
2018-04-30T11:00:56.455Z,81.60
2018-04-30T11:02:05.026Z,81.60
2018-04-30T11:03:13.633Z,80.90
2018-04-30T11:04:22.252Z,80.80
2018-04-30T11:05:30.937Z,80.80
2018-04-30T11:06:39.620Z,80.70
2018-04-30T11:07:48.304Z,81.30
2018-04-30T11:08:57.685Z,81.40
2018-04-30T11:10:06.299Z,81.40
2018-04-30T11:11:15.114Z,81.80
2018-04-30T11:12:24.564Z,81.60
2018-04-30T11:13:33.400Z,81.60
2018-04-30T11:14:42.020Z,82.20
2018-04-30T11:15:50.836Z,81.80
2018-04-30T11:16:59.379Z,81.90
2018-04-30T11:18:07.957Z,81.90
2018-04-30T11:19:16.619Z,82.10
2018-04-30T11:20:25.227Z,81.90
2018-04-30T11:21:34.041Z,81.40
2018-04-30T11:22:43.546Z,81.50
2018-04-30T11:23:52.323Z,81.30
2018-04-30T11:25:01.112Z,81.30
2018-04-30T11:26:09.699Z,81.20
2018-04-30T11:27:18.235Z,80.30
2018-04-30T11:28:26.992Z,80.10
2018-04-30T11:29:35.598Z,79.70
2018-04-30T11:30:44.256Z,79.50
2018-04-30T11:31:52.892Z,79.50
2018-04-30T11:33:01.493Z,78.70
2018-04-30T11:34:10.084Z,78.90
2018-04-30T11:35:18.714Z,78.80
2018-04-30T11:36:27.426Z,79.40
2018-04-30T11:37:36.027Z,79.80
2018-04-30T11:38:44.812Z,80.10
2018-04-30T11:39:53.646Z,80.00
2018-04-30T11:41:02.171Z,80.10
2018-04-30T11:42:10.737Z,79.70
2018-04-30T11:43:19.359Z,80.00
2018-04-30T11:44:28.225Z,80.00
2018-04-30T11:45:36.999Z,80.10
2018-04-30T11:46:45.665Z,80.20
2018-04-30T11:47:55.015Z,80.80
2018-04-30T11:49:03.727Z,80.70
2018-04-30T11:50:13.122Z,80.60
2018-04-30T11:51:21.697Z,80.50
2018-04-30T11:52:30.279Z,80.20
2018-04-30T11:53:38.911Z,80.00
2018-04-30T11:54:47.666Z,79.70
2018-04-30T11:55:56.406Z,79.80
2018-04-30T11:57:05.139Z,79.60
2018-04-30T11:58:13.737Z,80.00
2018-04-30T11:59:22.341Z,79.60
2018-04-30T12:00:31.047Z,79.20
2018-04-30T12:01:39.824Z,79.10
2018-04-30T12:02:48.540Z,79.00
2018-04-30T12:03:57.177Z,78.60
2018-04-30T12:05:05.836Z,79.00
2018-04-30T12:06:15.122Z,78.90
2018-04-30T12:07:23.802Z,78.90
2018-04-30T12:08:32.475Z,80.00
2018-04-30T12:09:41.271Z,78.50
2018-04-30T12:10:50.110Z,78.10
2018-04-30T12:11:58.830Z,76.80
2018-04-30T12:13:07.429Z,75.50
2018-04-30T12:14:16.172Z,75.30
2018-04-30T12:15:24.821Z,76.40
2018-04-30T12:16:33.556Z,76.20
2018-04-30T12:17:42.262Z,75.20
2018-04-30T12:18:50.880Z,75.40
2018-04-30T12:19:59.440Z,74.20
2018-04-30T12:21:08.192Z,73.80
2018-04-30T12:22:16.710Z,74.60
2018-04-30T12:23:26.112Z,73.80
2018-04-30T12:24:34.745Z,73.80
2018-04-30T12:25:43.419Z,74.30
2018-04-30T12:26:52.014Z,74.00
2018-04-30T12:28:00.748Z,74.30
2018-04-30T12:29:09.407Z,74.60
2018-04-30T12:30:18.288Z,75.10
2018-04-30T12:31:26.998Z,74.80
2018-04-30T12:32:35.721Z,74.10
2018-04-30T12:33:44.433Z,74.20
2018-04-30T12:34:52.935Z,74.50
2018-04-30T12:36:01.637Z,74.50
2018-04-30T12:37:10.333Z,74.80
2018-04-30T12:38:19.115Z,75.00
2018-04-30T12:39:27.751Z,75.10
2018-04-30T12:40:36.440Z,74.90
2018-04-30T12:41:45.055Z,75.10
2018-04-30T12:42:54.387Z,75.50
2018-04-30T12:44:03.082Z,75.60
2018-04-30T12:45:11.735Z,75.60
2018-04-30T12:46:20.481Z,75.00
2018-04-30T12:47:29.167Z,75.60
2018-04-30T12:48:37.936Z,74.00
2018-04-30T12:49:46.564Z,73.30
2018-04-30T12:50:55.361Z,73.00
2018-04-30T12:52:04.347Z,73.50
2018-04-30T12:53:13.111Z,72.20
2018-04-30T12:54:22.626Z,71.30
2018-04-30T12:55:31.315Z,71.20
2018-04-30T12:56:39.912Z,71.80
2018-04-30T12:57:49.276Z,70.50
2018-04-30T12:58:57.879Z,70.30
2018-04-30T13:00:06.635Z,68.30
2018-04-30T13:01:15.323Z,66.50
2018-04-30T13:02:23.996Z,66.70
2018-04-30T13:03:32.691Z,66.20
2018-04-30T13:04:42.069Z,64.60
2018-04-30T13:05:50.777Z,64.60
2018-04-30T13:06:59.380Z,64.80
2018-04-30T13:08:08.167Z,63.90
2018-04-30T13:09:16.906Z,64.10
2018-04-30T13:10:25.872Z,63.30
2018-04-30T13:11:34.620Z,64.50
2018-04-30T13:12:43.537Z,64.20
2018-04-30T13:13:52.406Z,63.30
2018-04-30T13:15:01.224Z,63.30
2018-04-30T13:16:09.860Z,64.30
2018-04-30T13:17:18.547Z,64.70
2018-04-30T13:18:27.227Z,65.40
2018-04-30T13:19:35.903Z,65.00
2018-04-30T13:20:44.604Z,65.20
2018-04-30T13:21:53.386Z,65.30
2018-04-30T13:23:02.040Z,65.40
2018-04-30T13:24:10.741Z,65.70
2018-04-30T13:25:19.442Z,65.80
2018-04-30T13:26:28.171Z,66.30
2018-04-30T13:27:36.837Z,67.70
2018-04-30T13:28:45.547Z,67.10
2018-04-30T13:29:54.310Z,66.10
2018-04-30T13:31:03.065Z,63.90
2018-04-30T13:32:12.552Z,63.30
2018-04-30T13:33:21.144Z,63.20
2018-04-30T13:34:29.765Z,63.40
2018-04-30T13:35:38.481Z,63.80
2018-04-30T13:36:47.230Z,62.50
2018-04-30T13:37:55.825Z,61.90
2018-04-30T13:39:05.334Z,61.00
2018-04-30T13:40:14.168Z,59.90
2018-04-30T13:41:22.864Z,58.80
2018-04-30T13:42:31.519Z,57.90
2018-04-30T13:43:40.142Z,57.20
2018-04-30T13:44:48.711Z,56.30
2018-04-30T13:45:57.296Z,55.80
2018-04-30T13:47:05.918Z,55.10
2018-04-30T13:48:14.558Z,54.90
2018-04-30T13:49:23.064Z,54.00
2018-04-30T13:50:31.735Z,53.90
2018-04-30T13:51:40.331Z,53.30
2018-04-30T13:52:49.795Z,53.00
2018-04-30T13:53:58.507Z,52.80
2018-04-30T13:55:07.172Z,53.20
2018-04-30T13:56:15.792Z,52.90
2018-04-30T13:57:25.131Z,51.80
2018-04-30T13:58:34.701Z,50.80
2018-04-30T13:59:43.595Z,50.70
2018-04-30T14:00:52.213Z,49.80
2018-04-30T14:02:00.868Z,49.20
2018-04-30T14:03:09.552Z,49.00
2018-04-30T14:04:19.066Z,48.90
2018-04-30T14:05:27.767Z,48.90
2018-04-30T14:06:36.385Z,47.60
2018-04-30T14:07:45.086Z,48.30
2018-04-30T14:08:53.675Z,47.70
2018-04-30T14:10:02.407Z,47.90
2018-04-30T14:11:11.828Z,47.80
2018-04-30T14:12:20.534Z,47.70
2018-04-30T14:13:29.054Z,47.00
2018-04-30T14:14:37.761Z,46.80
2018-04-30T14:15:46.469Z,46.70
2018-04-30T14:16:55.163Z,46.80
2018-04-30T14:18:03.865Z,46.30
2018-04-30T14:19:12.597Z,45.90
2018-04-30T14:20:21.336Z,45.60
2018-04-30T14:21:30.123Z,45.40
2018-04-30T14:22:38.724Z,45.00
2018-04-30T14:23:48.258Z,45.40
2018-04-30T14:24:57.569Z,45.50
2018-04-30T14:26:06.329Z,45.50
2018-04-30T14:27:14.883Z,46.00
2018-04-30T14:28:23.600Z,46.40
2018-04-30T14:29:32.350Z,46.80
2018-04-30T14:30:40.983Z,47.50
2018-04-30T14:31:49.587Z,47.50
2018-04-30T14:32:58.183Z,48.00
2018-04-30T14:34:06.857Z,48.60
2018-04-30T14:35:16.416Z,49.00
2018-04-30T14:36:24.995Z,49.00
2018-04-30T14:37:33.641Z,49.00
2018-04-30T14:38:42.222Z,49.60
2018-04-30T14:39:50.983Z,50.40
2018-04-30T14:40:59.606Z,51.00
2018-04-30T14:42:08.195Z,50.80
2018-04-30T14:43:17.799Z,50.30
2018-04-30T14:44:26.540Z,50.20
2018-04-30T14:45:35.077Z,50.10
2018-04-30T14:46:43.708Z,50.40
2018-04-30T14:47:52.394Z,50.80